Fremont, OH

8:50 PM EDT on March 29, 2015 (GMT -0400)
APRSWXNET Fremont OH US | | Change Station
CLOSE
Current Station
Personal Weather Station
Location: Fremont, OH
Elevation: 620 ft
Nearby Weather Stations

Elev 620 ft 41.36 °N, 83.12 °W | Updated 40 minutes ago

Overcast
Overcast
44 °F
Feels Like 39 °F
N
10
Wind Variable Wind from SSW
Gusts 20.0 mph

Today
High -- | Low -- °F
--% Chance of Precip.
Yesterday
High -- | Low -- °F
Precip. -- in
7:21 AM 7:54 PM
Waxing Gibbous, 75% visible
Pressure 29.87 in
Visibility 10.0 miles
Clouds Overcast 5000 ft
Windchill 39 °F
Dew Point 26 °F
Humidity 49%
Rainfall in
Snow Depth Not available.
UV 0 out of 12
Pollen 4.30 out of 12
Air Quality Not available.
Flu Activity Not available.
METAR KPCW 300032Z AUTO 21013KT 10SM OVC050 07/M06 A2987 RMK AO2 PK WND

More Conditions Fewer Conditions

Pressure 29.87 in
Visibility 10.0 miles
Clouds Overcast 5000 ft
Windchill 39 °F
Dew Point 26 °F
Humidity 49%
Rainfall in
Snow Depth Not available.
UV 0 out of 12
Pollen 4.30 out of 12
Air Quality Not available.
Flu Activity Not available.
METAR KPCW 300032Z AUTO 21013KT 10SM OVC050 07/M06 A2987 RMK AO2 PK WND

More Conditions Fewer Conditions

10-Day Weather Forecast

Almanac

Astronomy

Mar. 29, 2015 Rise Set
Actual Time
Civil Twilight
Nautical Twilight
Astronomical Twilight
Moon
Length of Visible Light
Length of Day
Tomorrow will be .
, % of the Moon is Illuminated

Today's Extremes

State Highs State Lows

Community

WunderPhotos

Upload Photos

1,809,389 photos uploaded!

WunderBlogs® & News

Nearby

Air Quality

  Air Quality AQ Index Pollutant
Not available.

Snow Depth

Station Depth Elevation

Earthquake Activity

City Distance Mag. Time & Date
Minimum magnitude displayed is 2.5.

Coastal Water Temperatures

Place Temperature

Stations

Nearby Weather Stations

Station Location Temp. Windchill Dew Point Humidity Wind Precip. Elev Updated Type